Time;durP1;ratioP1;P1;durP2;ratioP2;P2;SDS_P1;SDS_P2;PMS_P1;PMS_P2;Temp;Humidity;BMP_temperature;BMP_pressure;BME280_temperature;BME280_humidity;BME280_pressure;Samples;Min_cycle;Max_cycle;Signal;HPM_P1;HPM_P2
2023/12/06 00:00:22;;;;;;;2.57;2.00;;;6.50;99.90;;;;;;5010156;28;20192;-66
2023/12/06 00:02:49;;;;;;;3.40;2.30;;;6.50;99.90;;;;;;5011540;28;20216;-65
2023/12/06 00:05:15;;;;;;;2.30;1.57;;;6.50;99.90;;;;;;5010155;28;20234;-64
2023/12/06 00:07:41;;;;;;;6.93;3.00;;;6.50;99.90;;;;;;5009691;28;21015;-66
2023/12/06 00:10:07;;;;;;;4.40;3.27;;;6.50;99.90;;;;;;5010196;28;20192;-66
2023/12/06 00:12:33;;;;;;;3.77;2.70;;;6.50;99.90;;;;;;5014976;28;20212;-66
2023/12/06 00:14:58;;;;;;;3.03;2.07;;;6.50;99.90;;;;;;5012043;28;20435;-67
2023/12/06 00:17:24;;;;;;;3.23;2.00;;;6.50;99.90;;;;;;5014389;28;20185;-66
2023/12/06 00:19:49;;;;;;;2.97;2.20;;;6.50;99.90;;;;;;5018244;28;20177;-66
2023/12/06 00:22:15;;;;;;;3.43;2.20;;;6.60;99.90;;;;;;5014612;28;20177;-66
2023/12/06 00:24:40;;;;;;;3.03;2.10;;;6.70;99.90;;;;;;5009795;28;20880;-66
2023/12/06 00:27:06;;;;;;;3.80;2.00;;;6.60;99.90;;;;;;5010934;28;20272;-66
2023/12/06 00:29:32;;;;;;;3.90;1.77;;;6.60;99.90;;;;;;5016101;28;20200;-66
2023/12/06 00:31:57;;;;;;;2.90;2.00;;;6.70;99.90;;;;;;5013988;28;20561;-66
2023/12/06 00:34:23;;;;;;;3.47;2.30;;;6.70;99.90;;;;;;5015230;28;20706;-66
2023/12/06 00:36:48;;;;;;;4.80;2.50;;;6.60;99.90;;;;;;5010395;28;20224;-66
2023/12/06 00:39:14;;;;;;;3.37;2.37;;;6.60;99.90;;;;;;5014911;28;20263;-66
2023/12/06 00:41:41;;;;;;;4.77;2.10;;;6.50;99.90;;;;;;5014536;28;20188;-66
2023/12/06 00:44:07;;;;;;;3.03;2.23;;;6.60;99.90;;;;;;5011585;28;20322;-66
2023/12/06 00:46:33;;;;;;;4.43;2.00;;;6.60;99.90;;;;;;5018900;28;20424;-66
2023/12/06 00:48:59;;;;;;;4.03;2.30;;;6.60;99.90;;;;;;5019293;28;20420;-67
2023/12/06 00:51:25;;;;;;;3.47;2.43;;;6.70;99.90;;;;;;5015221;28;20442;-66
2023/12/06 00:53:51;;;;;;;3.87;1.87;;;6.70;99.90;;;;;;5019379;28;20557;-66
2023/12/06 00:56:16;;;;;;;2.77;2.00;;;6.60;99.90;;;;;;5016668;28;20506;-66
2023/12/06 00:58:43;;;;;;;4.60;2.43;;;6.70;99.90;;;;;;5018841;28;20201;-66
2023/12/06 01:01:09;;;;;;;3.27;2.23;;;6.80;99.90;;;;;;5018236;28;20218;-64
2023/12/06 01:03:34;;;;;;;2.97;2.13;;;6.70;99.90;;;;;;5015202;28;20462;-65
2023/12/06 01:06:00;;;;;;;3.63;2.07;;;6.70;99.90;;;;;;5018263;28;20198;-65
2023/12/06 01:08:25;;;;;;;4.87;2.07;;;6.80;99.90;;;;;;5016179;28;20639;-65
2023/12/06 01:10:51;;;;;;;4.40;2.40;;;6.80;99.90;;;;;;5021151;28;20202;-65
2023/12/06 01:13:18;;;;;;;4.27;2.60;;;6.80;99.90;;;;;;5015934;28;20731;-65
2023/12/06 01:15:44;;;;;;;3.70;2.27;;;6.70;99.90;;;;;;5015458;28;20189;-64
2023/12/06 01:18:09;;;;;;;4.27;2.40;;;6.80;99.90;;;;;;5014437;28;20439;-65
2023/12/06 01:20:38;;;;;;;3.80;2.60;;;6.70;99.90;;;;;;5022857;28;20235;-65
2023/12/06 01:23:04;;;;;;;4.13;2.10;;;6.70;99.90;;;;;;5018312;28;20704;-65
2023/12/06 01:25:30;;;;;;;3.10;2.30;;;6.70;99.90;;;;;;5019086;28;20415;-65
2023/12/06 01:27:55;;;;;;;4.23;2.30;;;6.80;99.90;;;;;;5022439;28;20442;-65
2023/12/06 01:30:21;;;;;;;3.00;1.97;;;6.70;99.90;;;;;;5017138;28;20180;-65
2023/12/06 01:32:47;;;;;;;3.27;2.20;;;6.80;99.90;;;;;;5020962;28;20239;-65
2023/12/06 01:35:13;;;;;;;3.07;2.30;;;6.80;99.90;;;;;;5015846;28;20565;-65
2023/12/06 01:37:38;;;;;;;5.20;2.67;;;6.80;99.90;;;;;;5013486;28;20905;-65
2023/12/06 01:40:05;;;;;;;4.53;2.50;;;6.80;99.90;;;;;;5021825;28;20449;-65
2023/12/06 01:42:30;;;;;;;8.20;3.10;;;6.80;99.90;;;;;;5018891;28;20646;-65
2023/12/06 01:44:56;;;;;;;7.60;3.17;;;6.70;99.90;;;;;;5017989;28;20417;-65
2023/12/06 01:47:24;;;;;;;7.20;3.60;;;6.80;99.90;;;;;;5014149;28;20181;-65
2023/12/06 01:49:52;;;;;;;4.93;3.07;;;6.80;99.90;;;;;;5018738;28;21005;-65
2023/12/06 01:52:17;;;;;;;6.23;3.00;;;6.70;99.90;;;;;;5017337;28;20449;-65
2023/12/06 01:54:43;;;;;;;4.27;2.60;;;6.80;99.90;;;;;;5017516;28;20946;-65
2023/12/06 01:57:10;;;;;;;7.37;2.97;;;6.80;99.90;;;;;;5018131;28;20181;-65
2023/12/06 01:59:38;;;;;;;5.77;2.90;;;6.80;99.90;;;;;;5023830;28;20420;-65
2023/12/06 02:02:04;;;;;;;6.90;4.10;;;6.90;99.90;;;;;;5014659;28;20427;-66
2023/12/06 02:04:32;;;;;;;5.40;3.40;;;6.90;99.90;;;;;;5023687;28;20513;-65
2023/12/06 02:06:58;;;;;;;5.80;3.40;;;6.80;99.90;;;;;;5016572;28;20976;-65
2023/12/06 02:09:25;;;;;;;5.90;3.17;;;6.80;99.90;;;;;;5014290;28;20524;-65
2023/12/06 02:11:51;;;;;;;4.60;2.67;;;6.90;99.90;;;;;;5018569;28;20194;-66
2023/12/06 02:14:17;;;;;;;7.20;2.63;;;6.90;99.90;;;;;;5017551;28;20493;-65
2023/12/06 02:16:43;;;;;;;5.30;3.00;;;6.90;99.90;;;;;;5017120;28;20177;-65
2023/12/06 02:19:16;;;;;;;9.53;2.90;;;6.90;99.90;;;;;;5015222;28;20427;-65
2023/12/06 02:21:42;;;;;;;6.20;3.03;;;6.80;99.90;;;;;;5020462;28;20456;-65
2023/12/06 02:24:09;;;;;;;4.00;2.87;;;6.70;99.90;;;;;;5014540;28;20472;-66
2023/12/06 02:26:34;;;;;;;7.90;3.10;;;6.80;99.90;;;;;;5017649;28;20205;-66
2023/12/06 02:29:00;;;;;;;4.70;3.20;;;6.80;99.90;;;;;;5021284;28;20447;-65
2023/12/06 02:31:25;;;;;;;4.97;2.60;;;6.90;99.90;;;;;;5015319;28;20184;-65
2023/12/06 02:33:53;;;;;;;6.33;2.90;;;6.90;99.90;;;;;;5013556;28;20217;-65
2023/12/06 02:36:19;;;;;;;4.27;3.00;;;6.90;99.90;;;;;;5013839;28;20256;-65
2023/12/06 02:38:46;;;;;;;3.77;2.63;;;6.90;99.90;;;;;;5016763;28;20503;-65
2023/12/06 02:41:13;;;;;;;5.40;2.50;;;6.80;99.90;;;;;;5012073;28;20427;-65
2023/12/06 02:43:39;;;;;;;5.20;2.60;;;6.80;99.90;;;;;;5014191;28;20474;-65
2023/12/06 02:46:06;;;;;;;5.90;2.67;;;6.80;99.90;;;;;;5013805;28;20443;-65
2023/12/06 02:48:32;;;;;;;5.93;3.50;;;6.80;99.90;;;;;;5015070;28;20226;-65
2023/12/06 02:50:58;;;;;;;5.70;2.67;;;6.70;99.90;;;;;;5016727;28;20946;-65
2023/12/06 02:53:24;;;;;;;3.60;2.50;;;6.70;99.90;;;;;;5016291;28;20497;-65
2023/12/06 02:55:49;;;;;;;4.50;2.23;;;6.70;99.90;;;;;;5010604;28;20623;-65
2023/12/06 02:58:15;;;;;;;3.30;2.87;;;6.70;99.90;;;;;;5016955;28;20189;-65
2023/12/06 03:00:40;;;;;;;6.67;3.17;;;6.70;99.90;;;;;;5013951;28;20180;-65
2023/12/06 03:03:06;;;;;;;4.70;2.87;;;6.70;99.90;;;;;;5014977;28;20268;-65
2023/12/06 03:05:31;;;;;;;4.77;2.37;;;6.80;99.90;;;;;;5011150;28;20212;-65
2023/12/06 03:07:57;;;;;;;7.23;3.33;;;6.90;99.90;;;;;;5017242;28;20200;-65
2023/12/06 03:10:22;;;;;;;5.03;2.77;;;6.90;99.90;;;;;;5016323;28;20578;-65
2023/12/06 03:12:48;;;;;;;4.47;2.73;;;6.90;99.90;;;;;;5011989;28;21116;-65
2023/12/06 03:15:14;;;;;;;4.83;3.20;;;6.90;99.90;;;;;;5013210;28;20181;-65
2023/12/06 03:17:39;;;;;;;6.03;3.23;;;6.90;99.90;;;;;;5014522;28;20173;-65
2023/12/06 03:20:06;;;;;;;3.63;2.50;;;6.90;99.90;;;;;;5018520;28;20643;-65
2023/12/06 03:22:32;;;;;;;6.67;3.20;;;6.80;99.90;;;;;;5012388;28;20199;-65
2023/12/06 03:24:58;;;;;;;3.33;2.80;;;6.80;99.90;;;;;;5014705;28;20845;-65
2023/12/06 03:27:23;;;;;;;4.97;3.40;;;6.80;99.90;;;;;;5017844;28;20186;-65
2023/12/06 03:29:49;;;;;;;3.30;2.33;;;6.70;99.90;;;;;;5016137;28;20189;-65
2023/12/06 03:32:14;;;;;;;9.70;3.33;;;6.70;99.90;;;;;;5015027;28;20184;-65
2023/12/06 03:34:40;;;;;;;5.37;2.70;;;6.70;99.90;;;;;;5011300;28;20551;-65
2023/12/06 03:37:06;;;;;;;4.90;2.90;;;6.70;99.90;;;;;;5010923;28;20181;-64
2023/12/06 03:39:32;;;;;;;4.73;3.00;;;6.70;99.90;;;;;;5019516;28;20177;-65
2023/12/06 03:41:59;;;;;;;6.00;3.40;;;6.70;99.90;;;;;;5014756;28;20213;-65
2023/12/06 03:44:25;;;;;;;4.90;3.27;;;6.60;99.90;;;;;;5012393;28;20443;-65
2023/12/06 03:46:50;;;;;;;11.00;3.30;;;6.60;99.90;;;;;;5016147;28;20495;-65
2023/12/06 03:49:16;;;;;;;6.00;3.27;;;6.50;99.90;;;;;;5011166;28;20438;-66
2023/12/06 03:51:42;;;;;;;4.50;3.20;;;6.60;99.90;;;;;;5017745;28;20173;-66
2023/12/06 03:54:08;;;;;;;4.97;2.57;;;6.50;99.90;;;;;;5014534;28;20239;-65
2023/12/06 03:56:33;;;;;;;4.50;2.80;;;6.60;99.90;;;;;;5008591;28;20202;-65
2023/12/06 03:58:59;;;;;;;6.77;2.90;;;6.60;99.90;;;;;;5017695;28;20415;-65
2023/12/06 04:01:24;;;;;;;3.37;3.07;;;6.60;99.90;;;;;;5017213;28;20180;-65
2023/12/06 04:03:50;;;;;;;4.60;3.30;;;6.70;99.90;;;;;;5011938;28;20201;-65
2023/12/06 04:06:16;;;;;;;4.33;3.00;;;6.80;99.90;;;;;;5018056;28;20258;-65
2023/12/06 04:08:41;;;;;;;3.77;2.90;;;6.90;99.90;;;;;;5018400;28;20215;-64
2023/12/06 04:11:07;;;;;;;4.23;3.40;;;6.90;99.90;;;;;;5019483;28;20195;-65
2023/12/06 04:13:32;;;;;;;8.27;2.90;;;6.90;99.90;;;;;;5018312;28;20215;-65
2023/12/06 04:15:58;;;;;;;4.57;2.80;;;7.00;99.90;;;;;;5012586;28;20190;-65
2023/12/06 04:18:23;;;;;;;3.60;2.57;;;7.00;99.90;;;;;;5015027;28;20271;-65
2023/12/06 04:20:49;;;;;;;5.00;2.60;;;7.00;99.90;;;;;;5026193;28;20218;-65
2023/12/06 04:23:15;;;;;;;3.47;2.70;;;6.90;99.90;;;;;;5030274;28;20196;-65
2023/12/06 04:25:40;;;;;;;4.30;2.70;;;6.90;99.90;;;;;;5026869;28;20424;-66
2023/12/06 04:28:07;;;;;;;4.33;2.90;;;6.90;99.90;;;;;;5024254;28;20267;-66
2023/12/06 04:30:32;;;;;;;5.57;3.40;;;6.90;99.90;;;;;;5027328;28;20647;-66
2023/12/06 04:32:58;;;;;;;5.83;2.87;;;6.90;99.90;;;;;;5024318;28;20473;-66
2023/12/06 04:35:23;;;;;;;5.17;3.13;;;6.90;99.90;;;;;;5029140;28;20187;-66
2023/12/06 04:37:49;;;;;;;6.03;3.07;;;6.90;99.90;;;;;;5015639;28;20616;-66
2023/12/06 04:40:14;;;;;;;5.03;3.20;;;6.90;99.90;;;;;;5025989;28;20610;-66
2023/12/06 04:42:40;;;;;;;5.33;2.97;;;7.00;99.90;;;;;;5014122;28;20853;-66
2023/12/06 04:45:06;;;;;;;5.60;3.87;;;7.00;99.90;;;;;;5019404;28;20714;-66
2023/12/06 04:47:31;;;;;;;5.07;2.97;;;7.00;99.90;;;;;;5016411;28;20211;-66
2023/12/06 04:49:57;;;;;;;5.40;2.83;;;7.00;99.90;;;;;;5018422;28;20184;-66
2023/12/06 04:52:24;;;;;;;3.73;3.00;;;6.90;99.90;;;;;;5010740;28;20176;-65
2023/12/06 04:54:50;;;;;;;5.60;3.67;;;6.80;99.90;;;;;;5016540;28;20200;-66
2023/12/06 04:57:15;;;;;;;7.13;3.53;;;6.70;99.90;;;;;;5017374;28;20404;-66
2023/12/06 04:59:41;;;;;;;6.73;3.37;;;6.80;99.90;;;;;;5018205;28;20207;-66
2023/12/06 05:02:07;;;;;;;7.23;3.47;;;6.80;99.90;;;;;;5016532;28;20211;-65
2023/12/06 05:04:33;;;;;;;4.53;2.60;;;6.80;99.90;;;;;;5020051;28;20236;-66
2023/12/06 05:06:58;;;;;;;5.90;3.70;;;6.80;99.90;;;;;;5020362;28;20457;-66
2023/12/06 05:09:24;;;;;;;5.73;3.20;;;6.80;99.90;;;;;;5013641;28;20184;-66
2023/12/06 05:11:49;;;;;;;4.47;2.90;;;6.80;99.90;;;;;;5020232;28;20184;-66
2023/12/06 05:14:15;;;;;;;7.53;3.50;;;6.80;99.90;;;;;;5017007;28;20266;-66
2023/12/06 05:16:40;;;;;;;6.47;4.30;;;6.80;99.90;;;;;;5020156;28;20272;-66
2023/12/06 05:19:06;;;;;;;5.40;3.00;;;6.70;99.90;;;;;;5016491;28;20264;-66
2023/12/06 05:21:32;;;;;;;5.37;3.67;;;6.70;99.90;;;;;;5015342;28;20212;-66
2023/12/06 05:23:57;;;;;;;3.97;3.20;;;6.70;99.90;;;;;;5017444;28;20212;-65
2023/12/06 05:26:25;;;;;;;6.90;3.67;;;6.80;99.90;;;;;;5014738;28;21041;-65
2023/12/06 05:28:51;;;;;;;5.07;3.50;;;6.90;99.90;;;;;;5016876;28;20183;-65
2023/12/06 05:31:17;;;;;;;5.00;3.03;;;6.90;99.90;;;;;;5014026;28;20434;-65
2023/12/06 05:33:43;;;;;;;5.23;3.27;;;6.90;99.90;;;;;;5017770;28;20973;-64
2023/12/06 05:36:08;;;;;;;6.03;3.80;;;6.90;99.90;;;;;;5020009;28;20647;-64
2023/12/06 05:38:34;;;;;;;6.73;3.83;;;6.80;99.90;;;;;;5018548;28;21018;-66
2023/12/06 05:41:00;;;;;;;5.07;3.80;;;6.90;99.90;;;;;;5014587;28;20173;-66
2023/12/06 05:43:26;;;;;;;6.90;4.17;;;6.90;99.90;;;;;;5012906;28;20208;-66
2023/12/06 05:45:51;;;;;;;8.40;4.03;;;6.90;99.90;;;;;;5016721;28;20189;-66
2023/12/06 05:48:17;;;;;;;5.53;4.07;;;6.80;99.90;;;;;;5018987;28;20374;-66
2023/12/06 05:50:42;;;;;;;6.63;4.07;;;6.80;99.90;;;;;;5020872;28;20188;-66
2023/12/06 05:53:08;;;;;;;5.90;4.53;;;6.80;99.90;;;;;;5024515;28;20265;-66
2023/12/06 05:55:33;;;;;;;5.87;4.30;;;6.80;99.90;;;;;;5017968;28;20185;-66
2023/12/06 05:57:59;;;;;;;6.83;4.80;;;6.90;99.90;;;;;;5017493;28;20184;-66
2023/12/06 06:00:25;;;;;;;6.53;4.40;;;6.80;99.90;;;;;;5016545;28;20193;-66
2023/12/06 06:02:52;;;;;;;6.00;4.37;;;6.80;99.90;;;;;;5011471;28;20205;-66
2023/12/06 06:05:18;;;;;;;7.13;5.73;;;6.80;99.90;;;;;;5014139;28;20429;-66
2023/12/06 06:07:44;;;;;;;6.67;5.70;;;6.90;99.90;;;;;;5015772;28;20457;-66
2023/12/06 06:10:09;;;;;;;15.30;5.00;;;6.80;99.90;;;;;;5017520;28;20525;-66
2023/12/06 06:12:35;;;;;;;9.00;5.43;;;6.80;99.90;;;;;;5015201;28;20945;-66
2023/12/06 06:15:01;;;;;;;8.90;5.80;;;6.90;99.90;;;;;;5015712;28;20181;-65
2023/12/06 06:17:27;;;;;;;9.47;5.20;;;6.90;99.90;;;;;;5021222;28;20188;-65
2023/12/06 06:19:52;;;;;;;8.07;5.60;;;6.90;99.90;;;;;;5015919;28;20438;-65
2023/12/06 06:22:18;;;;;;;8.20;6.43;;;6.90;99.90;;;;;;5020189;28;20185;-65
2023/12/06 06:24:44;;;;;;;6.73;5.70;;;6.90;99.90;;;;;;5010094;28;20208;-65
2023/12/06 06:27:10;;;;;;;7.47;5.70;;;6.90;99.90;;;;;;5018119;28;20181;-65
2023/12/06 06:29:37;;;;;;;7.27;5.07;;;6.90;99.90;;;;;;5013066;28;20506;-65
2023/12/06 06:32:03;;;;;;;9.63;7.40;;;6.90;99.90;;;;;;5014763;28;20760;-66
2023/12/06 06:34:29;;;;;;;7.90;6.50;;;6.90;99.90;;;;;;5018960;28;20477;-66
2023/12/06 06:36:54;;;;;;;9.23;6.23;;;6.90;99.90;;;;;;5017403;28;20415;-66
2023/12/06 06:39:20;;;;;;;13.20;5.90;;;6.80;99.90;;;;;;5021325;28;20919;-66
2023/12/06 06:41:46;;;;;;;8.70;6.17;;;6.90;99.90;;;;;;5018492;28;20187;-66
2023/12/06 06:44:12;;;;;;;10.63;6.20;;;6.80;99.90;;;;;;5015931;28;20292;-66
2023/12/06 06:46:37;;;;;;;8.67;6.67;;;6.90;99.90;;;;;;5016351;28;20189;-66
2023/12/06 06:49:03;;;;;;;9.60;8.20;;;6.80;99.90;;;;;;5015950;28;20209;-66
2023/12/06 06:51:35;;;;;;;8.30;6.43;;;6.90;99.90;;;;;;5013555;28;20177;-65
2023/12/06 06:54:05;;;;;;;8.83;6.87;;;6.90;99.90;;;;;;5011716;28;20319;-66
2023/12/06 06:56:30;;;;;;;8.83;6.63;;;6.90;99.90;;;;;;5014546;28;20411;-65
2023/12/06 06:58:56;;;;;;;10.30;7.17;;;6.80;99.90;;;;;;5018811;28;20419;-65
2023/12/06 07:01:22;;;;;;;12.17;7.57;;;6.80;99.90;;;;;;5014991;28;20168;-66
2023/12/06 07:03:48;;;;;;;9.50;7.63;;;6.80;99.90;;;;;;5017871;28;20432;-66
2023/12/06 07:06:14;;;;;;;11.80;7.67;;;6.70;99.90;;;;;;5016545;28;20185;-66
2023/12/06 07:08:42;;;;;;;9.47;7.30;;;6.70;99.90;;;;;;5012839;28;20204;-66
2023/12/06 07:11:08;;;;;;;11.00;8.53;;;6.70;99.90;;;;;;5019295;28;20180;-66
2023/12/06 07:13:37;;;;;;;7.73;6.33;;;6.70;99.90;;;;;;5013220;28;20826;-66
2023/12/06 07:16:03;;;;;;;9.97;7.77;;;6.60;99.90;;;;;;5018604;28;20169;-66
2023/12/06 07:18:31;;;;;;;9.67;7.83;;;6.70;99.90;;;;;;5013888;28;20543;-68
2023/12/06 07:21:00;;;;;;;13.43;9.00;;;6.60;99.90;;;;;;5012472;28;20424;-66
2023/12/06 07:23:26;;;;;;;13.10;9.10;;;6.60;99.90;;;;;;5014297;28;20435;-66
2023/12/06 07:25:53;;;;;;;12.83;9.60;;;6.50;99.90;;;;;;5019440;28;20477;-66
2023/12/06 07:28:18;;;;;;;11.17;8.33;;;6.60;99.90;;;;;;5016433;28;21123;-66
2023/12/06 07:30:44;;;;;;;11.43;9.10;;;6.60;99.90;;;;;;5017531;28;20569;-66
2023/12/06 07:33:10;;;;;;;11.37;8.80;;;6.60;99.90;;;;;;5013291;28;20475;-66
2023/12/06 07:35:36;;;;;;;13.50;10.00;;;6.60;99.90;;;;;;5018075;28;20411;-66
2023/12/06 07:38:02;;;;;;;14.13;9.10;;;6.60;99.90;;;;;;5011580;28;20181;-66
2023/12/06 07:40:29;;;;;;;11.50;9.37;;;6.60;99.90;;;;;;5015366;28;20953;-66
2023/12/06 07:42:54;;;;;;;12.90;8.93;;;6.60;99.90;;;;;;5016117;28;21471;-66
2023/12/06 07:45:21;;;;;;;12.30;9.20;;;6.70;99.90;;;;;;5007905;28;20408;-66
2023/12/06 07:47:47;;;;;;;11.60;9.00;;;6.70;99.90;;;;;;5015891;28;20204;-66
2023/12/06 07:50:13;;;;;;;11.60;9.10;;;6.60;99.90;;;;;;5007417;28;20427;-66
2023/12/06 07:52:39;;;;;;;11.63;9.70;;;6.70;99.90;;;;;;5011634;28;20419;-65
2023/12/06 07:55:06;;;;;;;14.20;9.70;;;6.60;99.90;;;;;;5008477;28;20184;-66
2023/12/06 07:57:35;;;;;;;18.37;13.37;;;6.70;99.90;;;;;;5014583;28;20422;-66
2023/12/06 08:00:02;;;;;;;14.07;10.00;;;6.70;99.90;;;;;;5015571;28;20439;-66
2023/12/06 08:02:28;;;;;;;13.00;10.17;;;6.80;99.90;;;;;;5015873;28;20427;-66
2023/12/06 08:04:54;;;;;;;11.97;9.37;;;6.70;99.90;;;;;;5010378;28;20424;-66
2023/12/06 08:07:19;;;;;;;11.40;9.07;;;6.70;99.90;;;;;;5012393;28;20224;-66
2023/12/06 08:09:45;;;;;;;13.93;10.27;;;6.60;99.90;;;;;;5013393;28;20173;-66
2023/12/06 08:12:10;;;;;;;13.07;9.53;;;6.70;99.90;;;;;;5016642;28;20191;-67
2023/12/06 08:14:39;;;;;;;13.77;10.47;;;6.60;99.90;;;;;;5012339;28;20699;-66
2023/12/06 08:17:05;;;;;;;14.13;10.07;;;6.60;99.90;;;;;;5017765;28;20180;-66
2023/12/06 08:19:31;;;;;;;14.10;9.07;;;6.70;99.90;;;;;;5014888;28;20439;-66
2023/12/06 08:21:56;;;;;;;13.80;10.20;;;6.70;99.90;;;;;;5018667;28;20435;-66
2023/12/06 08:24:22;;;;;;;17.40;11.37;;;6.80;99.90;;;;;;5014328;28;20596;-66
2023/12/06 08:26:48;;;;;;;15.43;11.23;;;6.80;99.90;;;;;;5011225;28;20260;-66
2023/12/06 08:29:13;;;;;;;14.00;10.87;;;6.80;99.90;;;;;;5019349;28;20196;-66
2023/12/06 08:31:39;;;;;;;13.60;10.47;;;7.00;99.90;;;;;;5013591;28;20207;-66
2023/12/06 08:34:04;;;;;;;16.43;11.60;;;7.00;99.90;;;;;;5019759;28;20694;-66
2023/12/06 08:36:30;;;;;;;17.47;10.63;;;6.90;99.90;;;;;;5012338;28;20228;-66
2023/12/06 08:38:56;;;;;;;13.67;10.27;;;6.90;99.90;;;;;;5010050;28;20189;-66
2023/12/06 08:41:22;;;;;;;16.43;11.23;;;6.90;99.90;;;;;;5019876;28;20277;-66
2023/12/06 08:43:48;;;;;;;16.53;11.60;;;6.70;99.90;;;;;;5015315;28;20212;-67
2023/12/06 08:46:15;;;;;;;15.77;12.33;;;6.70;99.90;;;;;;5021167;28;20534;-66
2023/12/06 08:48:40;;;;;;;15.57;10.90;;;6.80;99.90;;;;;;5012484;28;20251;-66
2023/12/06 08:51:06;;;;;;;14.57;11.73;;;6.90;99.90;;;;;;5010633;28;20836;-66
2023/12/06 08:53:32;;;;;;;17.57;11.67;;;6.90;99.90;;;;;;5010178;28;20658;-66
2023/12/06 08:55:58;;;;;;;16.10;12.57;;;6.90;99.90;;;;;;5018512;28;20200;-66
2023/12/06 08:58:24;;;;;;;14.27;11.30;;;6.90;99.90;;;;;;5021275;28;20439;-66
2023/12/06 09:00:49;;;;;;;14.87;11.37;;;6.90;99.90;;;;;;5013220;28;20632;-66
2023/12/06 09:03:15;;;;;;;14.07;11.40;;;6.90;99.90;;;;;;5015782;28;20205;-66
2023/12/06 09:05:40;;;;;;;14.17;10.90;;;6.90;99.90;;;;;;5017504;28;20563;-66
2023/12/06 09:08:06;;;;;;;13.67;10.40;;;7.00;99.90;;;;;;5015366;28;20267;-66
2023/12/06 09:10:32;;;;;;;12.73;10.60;;;6.90;99.90;;;;;;5009444;28;20263;-67
2023/12/06 09:12:58;;;;;;;12.50;10.83;;;6.90;99.90;;;;;;5017310;28;20443;-65
2023/12/06 09:15:23;;;;;;;16.73;12.03;;;6.90;99.90;;;;;;5022306;28;20207;-65
2023/12/06 09:17:49;;;;;;;15.10;11.20;;;6.90;99.90;;;;;;5011209;28;20654;-65
2023/12/06 09:20:16;;;;;;;16.47;11.10;;;6.90;99.90;;;;;;5018701;28;20629;-65
2023/12/06 09:22:41;;;;;;;15.00;10.87;;;6.90;99.90;;;;;;5013936;28;20271;-65
2023/12/06 09:25:07;;;;;;;14.67;10.47;;;6.80;99.90;;;;;;5017258;28;20534;-65
2023/12/06 09:27:33;;;;;;;15.33;11.20;;;6.90;99.90;;;;;;5017335;28;20185;-66
2023/12/06 09:29:58;;;;;;;15.53;11.90;;;6.90;99.90;;;;;;5019001;28;20513;-66
2023/12/06 09:32:24;;;;;;;14.43;11.63;;;6.90;99.90;;;;;;5015713;28;20212;-66
2023/12/06 09:34:50;;;;;;;16.03;11.53;;;6.90;99.90;;;;;;5016955;28;20674;-66
2023/12/06 09:37:16;;;;;;;13.77;10.43;;;7.00;99.90;;;;;;5016693;28;20267;-66
2023/12/06 09:39:43;;;;;;;17.07;10.50;;;7.10;99.90;;;;;;5021742;28;20422;-66
2023/12/06 09:42:10;;;;;;;19.10;12.33;;;7.00;99.90;;;;;;5025486;28;20451;-66
2023/12/06 09:44:41;;;;;;;15.23;11.57;;;7.10;99.90;;;;;;5013460;28;20483;-66
2023/12/06 09:47:06;;;;;;;14.57;10.90;;;7.00;99.90;;;;;;5020516;28;20569;-66
2023/12/06 09:49:32;;;;;;;12.63;10.27;;;7.00;99.90;;;;;;5029606;28;20521;-66
2023/12/06 09:52:08;;;;;;;15.07;11.07;;;7.00;99.90;;;;;;5014675;28;20197;-66
2023/12/06 09:54:38;;;;;;;15.87;10.60;;;7.20;99.90;;;;;;5014790;28;20199;-67
2023/12/06 09:57:04;;;;;;;15.20;11.10;;;7.10;99.90;;;;;;5017105;28;20430;-66
2023/12/06 09:59:30;;;;;;;14.47;11.23;;;7.00;99.90;;;;;;5016908;28;20431;-66
2023/12/06 10:01:55;;;;;;;15.23;11.20;;;7.10;99.90;;;;;;5017926;28;20181;-66
2023/12/06 10:04:21;;;;;;;12.20;10.20;;;7.20;99.90;;;;;;5018088;28;20261;-66
2023/12/06 10:06:49;;;;;;;14.80;11.87;;;7.20;99.90;;;;;;5012576;28;20247;-65
2023/12/06 10:09:16;;;;;;;12.63;10.57;;;7.20;99.90;;;;;;5017863;28;20581;-66
2023/12/06 10:11:41;;;;;;;13.47;10.87;;;7.20;99.90;;;;;;5012578;28;20889;-66
2023/12/06 10:14:19;;;;;;;14.87;11.53;;;7.20;99.90;;;;;;5014002;28;20557;-66
2023/12/06 10:16:48;;;;;;;11.73;9.80;;;7.10;99.90;;;;;;5014614;28;20177;-66
2023/12/06 10:19:19;;;;;;;14.80;10.77;;;7.10;99.90;;;;;;5014606;28;20419;-66
2023/12/06 10:21:46;;;;;;;13.97;9.93;;;7.20;99.90;;;;;;5009969;28;20439;-66
2023/12/06 10:24:12;;;;;;;16.87;10.37;;;7.20;99.90;;;;;;5016196;28;20447;-66
2023/12/06 10:26:39;;;;;;;12.30;9.90;;;7.30;99.90;;;;;;5015873;28;20407;-67
2023/12/06 10:29:04;;;;;;;17.40;10.13;;;7.20;99.90;;;;;;5017193;28;20251;-67
2023/12/06 10:31:42;;;;;;;13.47;11.10;;;7.20;99.90;;;;;;5014196;28;20432;-66
2023/12/06 10:34:09;;;;;;;14.63;11.30;;;7.20;99.90;;;;;;5017833;28;20254;-66
2023/12/06 10:36:38;;;;;;;14.37;11.53;;;7.20;99.90;;;;;;5020419;28;20785;-66
2023/12/06 10:39:22;;;;;;;16.67;10.63;;;7.20;99.90;;;;;;5014995;28;20431;-66
2023/12/06 10:41:49;;;;;;;14.40;9.57;;;7.10;99.90;;;;;;5014768;28;20789;-67
2023/12/06 10:44:15;;;;;;;14.10;10.20;;;7.10;99.90;;;;;;5018363;28;20462;-67
2023/12/06 10:46:43;;;;;;;12.43;10.50;;;7.10;99.90;;;;;;5017449;28;20424;-67
2023/12/06 10:49:10;;;;;;;15.23;11.23;;;7.10;99.90;;;;;;5015210;28;20438;-65
2023/12/06 10:51:37;;;;;;;14.70;11.63;;;7.20;99.90;;;;;;5017110;28;20427;-65
2023/12/06 10:54:07;;;;;;;15.13;11.27;;;7.20;99.90;;;;;;5017203;28;20466;-66
2023/12/06 10:56:34;;;;;;;15.97;11.50;;;7.20;99.90;;;;;;5017237;28;20537;-66
2023/12/06 10:59:03;;;;;;;12.63;9.97;;;7.20;99.90;;;;;;5018291;28;20957;-66
2023/12/06 11:01:31;;;;;;;13.87;11.77;;;7.20;99.90;;;;;;5018095;28;20835;-66
2023/12/06 11:03:58;;;;;;;20.60;11.40;;;7.20;99.90;;;;;;5010722;28;20496;-65
2023/12/06 11:06:52;;;;;;;13.50;10.73;;;7.20;99.90;;;;;;5015877;28;20435;-65
2023/12/06 11:09:25;;;;;;;13.77;10.63;;;7.20;99.90;;;;;;5015131;28;20444;-65
2023/12/06 11:12:01;;;;;;;12.77;10.40;;;7.30;99.90;;;;;;5013147;28;20908;-65
2023/12/06 11:14:50;;;;;;;15.40;11.40;;;7.20;99.90;;;;;;5011520;28;20476;-66
2023/12/06 11:17:35;;;;;;;17.37;10.87;;;7.20;99.90;;;;;;5010804;28;20443;-65
2023/12/06 11:20:03;;;;;;;15.33;11.57;;;7.20;99.90;;;;;;5024406;28;21062;-65
2023/12/06 11:22:29;;;;;;;15.93;10.60;;;7.30;99.90;;;;;;5013970;28;20514;-66
2023/12/06 11:24:56;;;;;;;17.57;11.67;;;7.30;99.90;;;;;;5011052;28;20972;-66
2023/12/06 11:27:22;;;;;;;12.73;10.70;;;7.40;99.90;;;;;;5011941;28;20194;-66
2023/12/06 11:29:49;;;;;;;13.00;10.77;;;7.40;99.90;;;;;;5007895;28;21203;-66
2023/12/06 11:32:14;;;;;;;14.73;11.53;;;7.30;99.90;;;;;;5014230;28;20432;-66
2023/12/06 11:34:40;;;;;;;15.57;11.83;;;7.30;99.90;;;;;;5010495;28;20466;-65
2023/12/06 11:37:16;;;;;;;12.80;10.80;;;7.30;99.90;;;;;;5004016;28;20193;-65
2023/12/06 11:39:46;;;;;;;12.87;11.27;;;7.40;99.90;;;;;;5011706;28;20653;-65
2023/12/06 11:42:18;;;;;;;13.93;11.00;;;7.50;99.90;;;;;;5014327;28;20427;-65
2023/12/06 11:44:53;;;;;;;12.27;10.07;;;7.50;99.90;;;;;;5015332;28;20455;-65
2023/12/06 11:47:26;;;;;;;14.33;10.80;;;7.60;99.90;;;;;;5011767;28;20474;-66
2023/12/06 11:49:53;;;;;;;18.87;11.60;;;7.60;99.90;;;;;;5012682;28;20593;-66
2023/12/06 11:52:20;;;;;;;18.90;11.93;;;7.60;99.90;;;;;;5013018;28;20427;-66
2023/12/06 11:54:46;;;;;;;15.60;10.57;;;7.70;99.90;;;;;;5011148;28;21243;-66
2023/12/06 11:57:12;;;;;;;14.20;11.50;;;7.70;99.90;;;;;;5011067;28;20849;-67
2023/12/06 11:59:40;;;;;;;13.87;11.30;;;7.70;99.90;;;;;;5008725;28;20448;-67
2023/12/06 12:02:07;;;;;;;16.23;11.00;;;7.70;99.90;;;;;;5017176;28;20596;-67
2023/12/06 12:04:34;;;;;;;12.53;9.80;;;7.60;99.90;;;;;;5014902;28;20536;-67
2023/12/06 12:07:00;;;;;;;12.70;10.40;;;7.50;99.90;;;;;;5014197;28;20470;-67
2023/12/06 12:09:26;;;;;;;12.87;9.87;;;7.50;99.90;;;;;;5010821;28;20551;-66
2023/12/06 12:11:53;;;;;;;12.97;9.80;;;7.50;99.90;;;;;;5008637;28;20876;-66
2023/12/06 12:14:18;;;;;;;13.23;10.23;;;7.60;99.90;;;;;;5015024;28;20498;-66
2023/12/06 12:16:44;;;;;;;13.10;10.73;;;7.60;99.90;;;;;;5009159;28;20467;-66
2023/12/06 12:19:11;;;;;;;14.20;10.27;;;7.50;99.90;;;;;;5013718;28;20217;-66
2023/12/06 12:21:36;;;;;;;20.70;10.20;;;7.70;99.90;;;;;;5010302;28;20187;-66
2023/12/06 12:24:02;;;;;;;12.20;9.77;;;7.70;99.90;;;;;;5004857;28;20456;-66
2023/12/06 12:26:29;;;;;;;13.23;10.47;;;7.70;99.90;;;;;;5010846;28;20275;-66
2023/12/06 12:28:54;;;;;;;11.97;10.37;;;7.70;99.90;;;;;;5007315;28;20199;-66
2023/12/06 12:31:24;;;;;;;14.03;9.73;;;7.70;99.90;;;;;;5017648;28;20444;-66
2023/12/06 12:33:51;;;;;;;16.20;10.67;;;7.60;99.90;;;;;;5009985;28;20215;-66
2023/12/06 12:36:17;;;;;;;12.80;9.70;;;7.70;99.90;;;;;;5008650;28;20514;-66
2023/12/06 12:38:44;;;;;;;12.37;9.73;;;7.70;99.90;;;;;;5008357;28;20431;-66
2023/12/06 12:41:11;;;;;;;12.90;9.30;;;7.70;99.90;;;;;;5011715;28;20479;-66
2023/12/06 12:43:37;;;;;;;12.37;10.47;;;7.60;99.90;;;;;;5014167;28;20454;-66